sensor_id;sensor_type;location;lat;lon;timestamp;P1;durP1;ratioP1;P2;durP2;ratioP2
78686;SDS011;68002;52.310;6.990;2023-05-20T00:01:52;5.07;;;2.30;;
78686;SDS011;68002;52.310;6.990;2023-05-20T00:04:18;5.10;;;2.90;;
78686;SDS011;68002;52.310;6.990;2023-05-20T00:06:43;5.43;;;2.30;;
78686;SDS011;68002;52.310;6.990;2023-05-20T00:09:08;5.70;;;2.50;;
78686;SDS011;68002;52.310;6.990;2023-05-20T00:11:33;4.63;;;2.13;;
78686;SDS011;68002;52.310;6.990;2023-05-20T00:13:58;5.13;;;2.13;;
78686;SDS011;68002;52.310;6.990;2023-05-20T00:16:24;6.80;;;2.40;;
78686;SDS011;68002;52.310;6.990;2023-05-20T00:18:49;4.83;;;2.10;;
78686;SDS011;68002;52.310;6.990;2023-05-20T00:21:14;5.60;;;2.70;;
78686;SDS011;68002;52.310;6.990;2023-05-20T00:23:39;5.10;;;3.00;;
78686;SDS011;68002;52.310;6.990;2023-05-20T00:26:04;6.10;;;2.63;;
78686;SDS011;68002;52.310;6.990;2023-05-20T00:28:30;5.67;;;1.97;;
78686;SDS011;68002;52.310;6.990;2023-05-20T00:30:55;5.40;;;2.90;;
78686;SDS011;68002;52.310;6.990;2023-05-20T00:33:20;4.40;;;2.23;;
78686;SDS011;68002;52.310;6.990;2023-05-20T00:35:45;7.73;;;2.93;;
78686;SDS011;68002;52.310;6.990;2023-05-20T00:38:10;5.90;;;2.33;;
78686;SDS011;68002;52.310;6.990;2023-05-20T00:40:36;3.80;;;2.27;;
78686;SDS011;68002;52.310;6.990;2023-05-20T00:43:01;5.37;;;1.93;;
78686;SDS011;68002;52.310;6.990;2023-05-20T00:45:26;6.00;;;3.13;;
78686;SDS011;68002;52.310;6.990;2023-05-20T00:47:52;4.20;;;2.10;;
78686;SDS011;68002;52.310;6.990;2023-05-20T00:50:17;6.37;;;2.33;;
78686;SDS011;68002;52.310;6.990;2023-05-20T00:52:42;3.60;;;1.90;;
78686;SDS011;68002;52.310;6.990;2023-05-20T00:55:08;6.30;;;2.50;;
78686;SDS011;68002;52.310;6.990;2023-05-20T00:57:33;5.82;;;2.35;;
78686;SDS011;68002;52.310;6.990;2023-05-20T00:59:58;6.47;;;2.57;;
78686;SDS011;68002;52.310;6.990;2023-05-20T01:02:24;7.90;;;2.83;;
78686;SDS011;68002;52.310;6.990;2023-05-20T01:04:49;7.27;;;2.60;;
78686;SDS011;68002;52.310;6.990;2023-05-20T01:07:15;6.27;;;2.87;;
78686;SDS011;68002;52.310;6.990;2023-05-20T01:09:41;4.53;;;2.42;;
78686;SDS011;68002;52.310;6.990;2023-05-20T01:14:49;4.75;;;2.42;;
78686;SDS011;68002;52.310;6.990;2023-05-20T01:17:18;5.65;;;2.22;;
78686;SDS011;68002;52.310;6.990;2023-05-20T01:19:44;6.07;;;2.72;;
78686;SDS011;68002;52.310;6.990;2023-05-20T01:22:11;3.72;;;1.90;;
78686;SDS011;68002;52.310;6.990;2023-05-20T01:24:44;5.43;;;2.50;;
78686;SDS011;68002;52.310;6.990;2023-05-20T01:27:11;5.10;;;2.22;;
78686;SDS011;68002;52.310;6.990;2023-05-20T01:29:36;5.53;;;2.53;;
78686;SDS011;68002;52.310;6.990;2023-05-20T01:32:05;5.65;;;2.28;;
78686;SDS011;68002;52.310;6.990;2023-05-20T01:34:35;7.03;;;2.45;;
78686;SDS011;68002;52.310;6.990;2023-05-20T01:37:02;3.83;;;2.25;;
78686;SDS011;68002;52.310;6.990;2023-05-20T01:39:29;4.18;;;2.25;;
78686;SDS011;68002;52.310;6.990;2023-05-20T01:41:55;7.10;;;2.38;;
78686;SDS011;68002;52.310;6.990;2023-05-20T01:44:21;6.07;;;2.80;;
78686;SDS011;68002;52.310;6.990;2023-05-20T01:46:47;6.20;;;2.03;;
78686;SDS011;68002;52.310;6.990;2023-05-20T01:49:13;7.13;;;2.60;;
78686;SDS011;68002;52.310;6.990;2023-05-20T01:51:38;6.33;;;2.70;;
78686;SDS011;68002;52.310;6.990;2023-05-20T01:54:04;5.33;;;2.53;;
78686;SDS011;68002;52.310;6.990;2023-05-20T01:56:29;7.57;;;3.43;;
78686;SDS011;68002;52.310;6.990;2023-05-20T01:58:54;7.03;;;3.22;;
78686;SDS011;68002;52.310;6.990;2023-05-20T02:01:20;9.13;;;3.63;;
78686;SDS011;68002;52.310;6.990;2023-05-20T02:03:45;6.47;;;3.23;;
78686;SDS011;68002;52.310;6.990;2023-05-20T02:06:10;7.30;;;3.53;;
78686;SDS011;68002;52.310;6.990;2023-05-20T02:08:36;5.33;;;3.03;;
78686;SDS011;68002;52.310;6.990;2023-05-20T02:11:01;4.45;;;2.92;;
78686;SDS011;68002;52.310;6.990;2023-05-20T02:13:26;5.97;;;3.10;;
78686;SDS011;68002;52.310;6.990;2023-05-20T02:15:52;5.47;;;2.93;;
78686;SDS011;68002;52.310;6.990;2023-05-20T02:18:17;4.10;;;2.63;;
78686;SDS011;68002;52.310;6.990;2023-05-20T02:20:42;3.80;;;2.37;;
78686;SDS011;68002;52.310;6.990;2023-05-20T02:23:08;4.47;;;2.80;;
78686;SDS011;68002;52.310;6.990;2023-05-20T02:25:33;4.50;;;1.70;;
78686;SDS011;68002;52.310;6.990;2023-05-20T02:27:58;4.30;;;2.43;;
78686;SDS011;68002;52.310;6.990;2023-05-20T02:30:23;3.93;;;2.27;;
78686;SDS011;68002;52.310;6.990;2023-05-20T02:32:48;4.17;;;2.10;;
78686;SDS011;68002;52.310;6.990;2023-05-20T02:35:14;4.27;;;2.00;;
78686;SDS011;68002;52.310;6.990;2023-05-20T02:37:39;4.73;;;2.27;;
78686;SDS011;68002;52.310;6.990;2023-05-20T02:40:04;4.20;;;2.27;;
78686;SDS011;68002;52.310;6.990;2023-05-20T02:42:30;5.15;;;2.42;;
78686;SDS011;68002;52.310;6.990;2023-05-20T02:44:55;4.90;;;2.33;;
78686;SDS011;68002;52.310;6.990;2023-05-20T02:47:21;5.30;;;2.53;;
78686;SDS011;68002;52.310;6.990;2023-05-20T02:49:46;4.53;;;2.13;;
78686;SDS011;68002;52.310;6.990;2023-05-20T02:52:11;4.37;;;2.57;;
78686;SDS011;68002;52.310;6.990;2023-05-20T02:54:36;4.43;;;2.10;;
78686;SDS011;68002;52.310;6.990;2023-05-20T02:57:01;5.97;;;2.63;;
78686;SDS011;68002;52.310;6.990;2023-05-20T02:59:27;4.50;;;2.20;;
78686;SDS011;68002;52.310;6.990;2023-05-20T03:01:52;4.90;;;2.50;;
78686;SDS011;68002;52.310;6.990;2023-05-20T03:04:17;5.70;;;1.90;;
78686;SDS011;68002;52.310;6.990;2023-05-20T03:06:42;4.30;;;1.93;;
78686;SDS011;68002;52.310;6.990;2023-05-20T03:09:08;3.53;;;1.97;;
78686;SDS011;68002;52.310;6.990;2023-05-20T03:11:33;5.17;;;2.40;;
78686;SDS011;68002;52.310;6.990;2023-05-20T03:13:58;4.27;;;2.03;;
78686;SDS011;68002;52.310;6.990;2023-05-20T03:16:23;4.63;;;2.20;;
78686;SDS011;68002;52.310;6.990;2023-05-20T03:18:48;3.77;;;1.90;;
78686;SDS011;68002;52.310;6.990;2023-05-20T03:21:14;4.43;;;2.00;;
78686;SDS011;68002;52.310;6.990;2023-05-20T03:23:39;6.07;;;2.10;;
78686;SDS011;68002;52.310;6.990;2023-05-20T03:26:04;3.63;;;2.00;;
78686;SDS011;68002;52.310;6.990;2023-05-20T03:28:29;5.03;;;2.20;;
78686;SDS011;68002;52.310;6.990;2023-05-20T03:30:54;4.10;;;1.83;;
78686;SDS011;68002;52.310;6.990;2023-05-20T03:33:20;6.23;;;2.93;;
78686;SDS011;68002;52.310;6.990;2023-05-20T03:35:45;4.10;;;2.27;;
78686;SDS011;68002;52.310;6.990;2023-05-20T03:38:10;3.50;;;2.20;;
78686;SDS011;68002;52.310;6.990;2023-05-20T03:40:35;4.77;;;2.00;;
78686;SDS011;68002;52.310;6.990;2023-05-20T03:43:00;3.80;;;2.10;;
78686;SDS011;68002;52.310;6.990;2023-05-20T03:45:26;4.10;;;2.07;;
78686;SDS011;68002;52.310;6.990;2023-05-20T03:47:51;3.30;;;1.43;;
78686;SDS011;68002;52.310;6.990;2023-05-20T03:50:16;3.60;;;2.43;;
78686;SDS011;68002;52.310;6.990;2023-05-20T03:52:41;5.20;;;2.13;;
78686;SDS011;68002;52.310;6.990;2023-05-20T03:55:07;4.53;;;2.33;;
78686;SDS011;68002;52.310;6.990;2023-05-20T03:57:32;5.88;;;1.95;;
78686;SDS011;68002;52.310;6.990;2023-05-20T03:59:57;3.57;;;1.97;;
78686;SDS011;68002;52.310;6.990;2023-05-20T04:02:23;3.97;;;2.13;;
78686;SDS011;68002;52.310;6.990;2023-05-20T04:04:48;3.40;;;1.50;;
78686;SDS011;68002;52.310;6.990;2023-05-20T04:07:13;4.07;;;1.60;;
78686;SDS011;68002;52.310;6.990;2023-05-20T04:09:38;2.47;;;1.70;;
78686;SDS011;68002;52.310;6.990;2023-05-20T04:12:04;3.60;;;2.10;;
78686;SDS011;68002;52.310;6.990;2023-05-20T04:14:29;3.58;;;1.83;;
78686;SDS011;68002;52.310;6.990;2023-05-20T04:16:55;3.23;;;1.63;;
78686;SDS011;68002;52.310;6.990;2023-05-20T04:19:20;3.50;;;1.43;;
78686;SDS011;68002;52.310;6.990;2023-05-20T04:21:45;4.17;;;1.87;;
78686;SDS011;68002;52.310;6.990;2023-05-20T04:24:10;3.37;;;2.00;;
78686;SDS011;68002;52.310;6.990;2023-05-20T04:26:35;2.97;;;1.50;;
78686;SDS011;68002;52.310;6.990;2023-05-20T04:29:01;3.97;;;2.07;;
78686;SDS011;68002;52.310;6.990;2023-05-20T04:31:26;3.90;;;2.10;;
78686;SDS011;68002;52.310;6.990;2023-05-20T04:33:52;2.93;;;1.67;;
78686;SDS011;68002;52.310;6.990;2023-05-20T04:36:17;4.18;;;1.80;;
78686;SDS011;68002;52.310;6.990;2023-05-20T04:38:43;3.23;;;1.70;;
78686;SDS011;68002;52.310;6.990;2023-05-20T04:41:08;3.93;;;1.53;;
78686;SDS011;68002;52.310;6.990;2023-05-20T04:43:33;7.40;;;3.03;;
78686;SDS011;68002;52.310;6.990;2023-05-20T04:45:58;2.97;;;1.20;;
78686;SDS011;68002;52.310;6.990;2023-05-20T04:48:24;4.10;;;2.85;;
78686;SDS011;68002;52.310;6.990;2023-05-20T04:50:49;2.90;;;1.90;;
78686;SDS011;68002;52.310;6.990;2023-05-20T04:53:15;3.57;;;1.50;;
78686;SDS011;68002;52.310;6.990;2023-05-20T04:55:40;4.65;;;2.28;;
78686;SDS011;68002;52.310;6.990;2023-05-20T04:58:06;3.83;;;1.87;;
78686;SDS011;68002;52.310;6.990;2023-05-20T05:00:31;2.33;;;1.40;;
78686;SDS011;68002;52.310;6.990;2023-05-20T05:02:56;3.47;;;1.60;;
78686;SDS011;68002;52.310;6.990;2023-05-20T05:05:21;2.97;;;1.13;;
78686;SDS011;68002;52.310;6.990;2023-05-20T05:07:46;2.47;;;1.10;;
78686;SDS011;68002;52.310;6.990;2023-05-20T05:10:12;3.93;;;1.37;;
78686;SDS011;68002;52.310;6.990;2023-05-20T05:12:37;3.35;;;1.85;;
78686;SDS011;68002;52.310;6.990;2023-05-20T05:15:02;2.07;;;1.20;;
78686;SDS011;68002;52.310;6.990;2023-05-20T05:17:28;3.88;;;1.10;;
78686;SDS011;68002;52.310;6.990;2023-05-20T05:19:53;3.27;;;1.40;;
78686;SDS011;68002;52.310;6.990;2023-05-20T05:22:18;2.60;;;1.40;;
78686;SDS011;68002;52.310;6.990;2023-05-20T05:24:43;3.47;;;1.40;;
78686;SDS011;68002;52.310;6.990;2023-05-20T05:27:09;2.57;;;1.23;;
78686;SDS011;68002;52.310;6.990;2023-05-20T05:29:34;2.10;;;0.83;;
78686;SDS011;68002;52.310;6.990;2023-05-20T05:31:59;1.80;;;0.90;;
78686;SDS011;68002;52.310;6.990;2023-05-20T05:34:24;3.40;;;1.30;;
78686;SDS011;68002;52.310;6.990;2023-05-20T05:36:50;4.03;;;1.00;;
78686;SDS011;68002;52.310;6.990;2023-05-20T05:39:15;2.87;;;1.80;;
78686;SDS011;68002;52.310;6.990;2023-05-20T05:41:40;2.30;;;0.93;;
78686;SDS011;68002;52.310;6.990;2023-05-20T05:44:05;3.57;;;1.60;;
78686;SDS011;68002;52.310;6.990;2023-05-20T05:46:30;2.97;;;1.10;;
78686;SDS011;68002;52.310;6.990;2023-05-20T05:48:56;2.60;;;1.23;;
78686;SDS011;68002;52.310;6.990;2023-05-20T05:51:21;4.50;;;1.23;;
78686;SDS011;68002;52.310;6.990;2023-05-20T05:53:46;2.40;;;1.17;;
78686;SDS011;68002;52.310;6.990;2023-05-20T05:56:11;4.57;;;1.63;;
78686;SDS011;68002;52.310;6.990;2023-05-20T05:58:37;3.00;;;1.10;;
78686;SDS011;68002;52.310;6.990;2023-05-20T06:01:02;4.50;;;1.63;;
78686;SDS011;68002;52.310;6.990;2023-05-20T06:03:27;3.27;;;1.30;;
78686;SDS011;68002;52.310;6.990;2023-05-20T06:05:52;7.03;;;1.27;;
78686;SDS011;68002;52.310;6.990;2023-05-20T06:08:17;3.43;;;1.57;;
78686;SDS011;68002;52.310;6.990;2023-05-20T06:10:49;3.00;;;1.10;;
78686;SDS011;68002;52.310;6.990;2023-05-20T06:13:14;2.65;;;1.25;;
78686;SDS011;68002;52.310;6.990;2023-05-20T06:15:40;2.40;;;1.52;;
78686;SDS011;68002;52.310;6.990;2023-05-20T06:18:05;2.20;;;1.57;;
78686;SDS011;68002;52.310;6.990;2023-05-20T06:20:30;2.60;;;1.53;;
78686;SDS011;68002;52.310;6.990;2023-05-20T06:22:56;2.93;;;1.67;;
78686;SDS011;68002;52.310;6.990;2023-05-20T06:25:21;2.53;;;1.40;;
78686;SDS011;68002;52.310;6.990;2023-05-20T06:27:46;2.70;;;1.40;;
78686;SDS011;68002;52.310;6.990;2023-05-20T06:30:11;2.83;;;1.47;;
78686;SDS011;68002;52.310;6.990;2023-05-20T06:32:37;2.15;;;1.45;;
78686;SDS011;68002;52.310;6.990;2023-05-20T06:35:02;2.30;;;1.37;;
78686;SDS011;68002;52.310;6.990;2023-05-20T06:37:27;2.42;;;1.30;;
78686;SDS011;68002;52.310;6.990;2023-05-20T06:39:53;3.83;;;1.70;;
78686;SDS011;68002;52.310;6.990;2023-05-20T06:42:18;3.07;;;1.63;;
78686;SDS011;68002;52.310;6.990;2023-05-20T06:44:44;3.15;;;1.55;;
78686;SDS011;68002;52.310;6.990;2023-05-20T06:47:09;2.47;;;1.27;;
78686;SDS011;68002;52.310;6.990;2023-05-20T06:49:34;2.87;;;1.63;;
78686;SDS011;68002;52.310;6.990;2023-05-20T06:51:59;3.07;;;1.53;;
78686;SDS011;68002;52.310;6.990;2023-05-20T06:54:25;5.47;;;2.07;;
78686;SDS011;68002;52.310;6.990;2023-05-20T06:56:50;2.40;;;1.87;;
78686;SDS011;68002;52.310;6.990;2023-05-20T06:59:15;4.37;;;2.00;;
78686;SDS011;68002;52.310;6.990;2023-05-20T07:01:40;2.40;;;1.90;;
78686;SDS011;68002;52.310;6.990;2023-05-20T07:04:05;3.10;;;2.13;;
78686;SDS011;68002;52.310;6.990;2023-05-20T07:06:31;4.17;;;1.40;;
78686;SDS011;68002;52.310;6.990;2023-05-20T07:08:56;3.93;;;1.90;;
78686;SDS011;68002;52.310;6.990;2023-05-20T07:11:21;4.33;;;1.60;;
78686;SDS011;68002;52.310;6.990;2023-05-20T07:13:46;2.90;;;1.63;;
78686;SDS011;68002;52.310;6.990;2023-05-20T07:16:11;2.77;;;1.67;;
78686;SDS011;68002;52.310;6.990;2023-05-20T07:18:37;3.80;;;2.00;;
78686;SDS011;68002;52.310;6.990;2023-05-20T07:21:02;2.43;;;1.70;;
78686;SDS011;68002;52.310;6.990;2023-05-20T07:23:27;5.13;;;2.10;;
78686;SDS011;68002;52.310;6.990;2023-05-20T07:25:52;3.03;;;1.70;;
78686;SDS011;68002;52.310;6.990;2023-05-20T07:28:19;5.10;;;2.93;;
78686;SDS011;68002;52.310;6.990;2023-05-20T07:30:45;3.28;;;1.48;;
78686;SDS011;68002;52.310;6.990;2023-05-20T07:33:10;3.77;;;1.37;;
78686;SDS011;68002;52.310;6.990;2023-05-20T07:35:35;4.53;;;1.90;;
78686;SDS011;68002;52.310;6.990;2023-05-20T07:38:01;2.70;;;2.17;;
78686;SDS011;68002;52.310;6.990;2023-05-20T07:40:26;2.97;;;1.70;;
78686;SDS011;68002;52.310;6.990;2023-05-20T07:42:51;2.90;;;1.30;;
78686;SDS011;68002;52.310;6.990;2023-05-20T07:45:16;3.13;;;1.60;;
78686;SDS011;68002;52.310;6.990;2023-05-20T07:47:42;2.78;;;1.55;;
78686;SDS011;68002;52.310;6.990;2023-05-20T07:50:07;2.87;;;1.73;;
78686;SDS011;68002;52.310;6.990;2023-05-20T07:52:32;4.07;;;1.63;;
78686;SDS011;68002;52.310;6.990;2023-05-20T07:54:57;3.63;;;1.63;;
78686;SDS011;68002;52.310;6.990;2023-05-20T07:57:23;3.60;;;1.57;;
78686;SDS011;68002;52.310;6.990;2023-05-20T07:59:48;5.20;;;1.90;;
78686;SDS011;68002;52.310;6.990;2023-05-20T08:02:13;6.10;;;2.00;;
78686;SDS011;68002;52.310;6.990;2023-05-20T08:04:38;3.57;;;1.63;;
78686;SDS011;68002;52.310;6.990;2023-05-20T08:07:04;5.57;;;1.83;;
78686;SDS011;68002;52.310;6.990;2023-05-20T08:09:29;2.55;;;1.33;;
78686;SDS011;68002;52.310;6.990;2023-05-20T08:11:55;3.65;;;1.55;;
78686;SDS011;68002;52.310;6.990;2023-05-20T08:14:20;3.90;;;1.50;;
78686;SDS011;68002;52.310;6.990;2023-05-20T08:16:45;3.20;;;2.33;;
78686;SDS011;68002;52.310;6.990;2023-05-20T08:19:10;4.17;;;2.37;;
78686;SDS011;68002;52.310;6.990;2023-05-20T08:21:36;2.90;;;1.77;;
78686;SDS011;68002;52.310;6.990;2023-05-20T08:24:01;2.83;;;1.90;;
78686;SDS011;68002;52.310;6.990;2023-05-20T08:26:26;2.80;;;2.20;;
78686;SDS011;68002;52.310;6.990;2023-05-20T08:28:51;2.77;;;1.40;;
78686;SDS011;68002;52.310;6.990;2023-05-20T08:31:17;3.53;;;1.50;;
78686;SDS011;68002;52.310;6.990;2023-05-20T08:33:42;5.95;;;2.45;;
78686;SDS011;68002;52.310;6.990;2023-05-20T08:36:07;3.07;;;1.37;;
78686;SDS011;68002;52.310;6.990;2023-05-20T08:38:33;2.63;;;1.60;;
78686;SDS011;68002;52.310;6.990;2023-05-20T08:40:58;2.50;;;1.27;;
78686;SDS011;68002;52.310;6.990;2023-05-20T08:43:23;4.43;;;1.80;;
78686;SDS011;68002;52.310;6.990;2023-05-20T08:45:49;3.22;;;1.52;;
78686;SDS011;68002;52.310;6.990;2023-05-20T08:48:15;5.60;;;1.55;;
78686;SDS011;68002;52.310;6.990;2023-05-20T08:50:42;2.33;;;1.25;;
78686;SDS011;68002;52.310;6.990;2023-05-20T08:53:09;4.05;;;1.45;;
78686;SDS011;68002;52.310;6.990;2023-05-20T08:55:36;3.73;;;1.43;;
78686;SDS011;68002;52.310;6.990;2023-05-20T08:58:06;3.00;;;1.52;;
78686;SDS011;68002;52.310;6.990;2023-05-20T09:00:31;2.13;;;1.10;;
78686;SDS011;68002;52.310;6.990;2023-05-20T09:02:57;2.30;;;1.40;;
78686;SDS011;68002;52.310;6.990;2023-05-20T09:05:23;2.42;;;1.20;;
78686;SDS011;68002;52.310;6.990;2023-05-20T09:07:48;2.50;;;1.47;;
78686;SDS011;68002;52.310;6.990;2023-05-20T09:10:14;3.23;;;1.60;;
78686;SDS011;68002;52.310;6.990;2023-05-20T09:12:39;2.97;;;1.23;;
78686;SDS011;68002;52.310;6.990;2023-05-20T09:15:05;3.13;;;1.10;;
78686;SDS011;68002;52.310;6.990;2023-05-20T09:17:31;2.75;;;1.58;;
78686;SDS011;68002;52.310;6.990;2023-05-20T09:19:59;2.65;;;1.27;;
78686;SDS011;68002;52.310;6.990;2023-05-20T09:22:27;2.90;;;1.43;;
78686;SDS011;68002;52.310;6.990;2023-05-20T09:24:53;3.15;;;1.52;;
78686;SDS011;68002;52.310;6.990;2023-05-20T09:27:19;3.15;;;1.40;;
78686;SDS011;68002;52.310;6.990;2023-05-20T09:29:48;2.78;;;1.13;;
78686;SDS011;68002;52.310;6.990;2023-05-20T09:32:14;3.13;;;1.00;;
78686;SDS011;68002;52.310;6.990;2023-05-20T09:34:40;3.38;;;1.33;;
78686;SDS011;68002;52.310;6.990;2023-05-20T09:37:06;3.90;;;1.80;;
78686;SDS011;68002;52.310;6.990;2023-05-20T09:39:33;3.15;;;1.20;;
78686;SDS011;68002;52.310;6.990;2023-05-20T09:42:21;2.97;;;1.20;;
78686;SDS011;68002;52.310;6.990;2023-05-20T09:44:49;3.95;;;1.10;;
78686;SDS011;68002;52.310;6.990;2023-05-20T09:47:15;3.58;;;1.50;;
78686;SDS011;68002;52.310;6.990;2023-05-20T09:49:42;6.43;;;1.48;;
78686;SDS011;68002;52.310;6.990;2023-05-20T09:52:09;1.58;;;0.77;;
78686;SDS011;68002;52.310;6.990;2023-05-20T09:54:35;2.45;;;1.35;;
78686;SDS011;68002;52.310;6.990;2023-05-20T09:57:01;1.98;;;1.35;;
78686;SDS011;68002;52.310;6.990;2023-05-20T09:59:28;2.40;;;1.52;;
78686;SDS011;68002;52.310;6.990;2023-05-20T10:01:55;1.95;;;1.10;;
78686;SDS011;68002;52.310;6.990;2023-05-20T10:04:20;3.53;;;1.30;;
78686;SDS011;68002;52.310;6.990;2023-05-20T10:12:54;3.28;;;1.63;;
78686;SDS011;68002;52.310;6.990;2023-05-20T10:15:29;3.30;;;1.50;;
78686;SDS011;68002;52.310;6.990;2023-05-20T10:20:43;3.28;;;0.82;;
78686;SDS011;68002;52.310;6.990;2023-05-20T10:23:19;3.25;;;1.30;;
78686;SDS011;68002;52.310;6.990;2023-05-20T10:25:49;4.55;;;1.33;;
78686;SDS011;68002;52.310;6.990;2023-05-20T10:28:15;3.25;;;1.35;;
78686;SDS011;68002;52.310;6.990;2023-05-20T10:30:48;2.40;;;1.35;;
78686;SDS011;68002;52.310;6.990;2023-05-20T10:33:15;1.90;;;0.95;;
78686;SDS011;68002;52.310;6.990;2023-05-20T10:35:46;3.28;;;1.42;;
78686;SDS011;68002;52.310;6.990;2023-05-20T10:38:11;3.17;;;1.38;;
78686;SDS011;68002;52.310;6.990;2023-05-20T10:40:37;3.22;;;1.40;;
78686;SDS011;68002;52.310;6.990;2023-05-20T10:43:13;2.65;;;1.13;;
78686;SDS011;68002;52.310;6.990;2023-05-20T10:45:47;2.92;;;1.15;;
78686;SDS011;68002;52.310;6.990;2023-05-20T10:48:27;4.75;;;1.40;;
78686;SDS011;68002;52.310;6.990;2023-05-20T10:50:57;3.75;;;0.95;;
78686;SDS011;68002;52.310;6.990;2023-05-20T10:53:26;2.90;;;1.60;;
78686;SDS011;68002;52.310;6.990;2023-05-20T10:55:52;3.03;;;1.20;;
78686;SDS011;68002;52.310;6.990;2023-05-20T10:58:18;3.00;;;1.23;;
78686;SDS011;68002;52.310;6.990;2023-05-20T11:00:46;3.25;;;1.08;;
78686;SDS011;68002;52.310;6.990;2023-05-20T11:03:12;6.80;;;1.48;;
78686;SDS011;68002;52.310;6.990;2023-05-20T11:05:39;1.98;;;1.23;;
78686;SDS011;68002;52.310;6.990;2023-05-20T11:08:08;3.83;;;0.95;;
78686;SDS011;68002;52.310;6.990;2023-05-20T11:10:36;2.13;;;1.13;;
78686;SDS011;68002;52.310;6.990;2023-05-20T11:13:02;4.35;;;1.52;;
78686;SDS011;68002;52.310;6.990;2023-05-20T11:15:29;2.63;;;1.30;;
78686;SDS011;68002;52.310;6.990;2023-05-20T11:17:59;1.92;;;1.23;;
78686;SDS011;68002;52.310;6.990;2023-05-20T11:20:26;4.00;;;1.35;;
78686;SDS011;68002;52.310;6.990;2023-05-20T11:22:55;1.80;;;0.90;;
78686;SDS011;68002;52.310;6.990;2023-05-20T11:25:20;3.45;;;0.77;;
78686;SDS011;68002;52.310;6.990;2023-05-20T11:27:46;2.97;;;1.20;;
78686;SDS011;68002;52.310;6.990;2023-05-20T11:30:14;2.77;;;1.10;;
78686;SDS011;68002;52.310;6.990;2023-05-20T11:32:40;4.53;;;1.48;;
78686;SDS011;68002;52.310;6.990;2023-05-20T11:35:05;3.80;;;0.93;;
78686;SDS011;68002;52.310;6.990;2023-05-20T11:37:31;2.20;;;1.00;;
78686;SDS011;68002;52.310;6.990;2023-05-20T11:40:03;2.00;;;0.90;;
78686;SDS011;68002;52.310;6.990;2023-05-20T11:42:29;2.95;;;1.20;;
78686;SDS011;68002;52.310;6.990;2023-05-20T11:44:54;3.00;;;0.80;;
78686;SDS011;68002;52.310;6.990;2023-05-20T11:47:23;2.57;;;0.93;;
78686;SDS011;68002;52.310;6.990;2023-05-20T11:49:48;2.72;;;0.95;;
78686;SDS011;68002;52.310;6.990;2023-05-20T11:52:14;3.00;;;1.10;;
78686;SDS011;68002;52.310;6.990;2023-05-20T11:54:39;3.33;;;0.70;;
78686;SDS011;68002;52.310;6.990;2023-05-20T11:57:04;3.30;;;0.93;;
78686;SDS011;68002;52.310;6.990;2023-05-20T11:59:30;3.83;;;1.20;;
78686;SDS011;68002;52.310;6.990;2023-05-20T12:01:55;2.77;;;1.03;;
78686;SDS011;68002;52.310;6.990;2023-05-20T12:04:20;1.93;;;0.83;;
78686;SDS011;68002;52.310;6.990;2023-05-20T12:06:45;2.90;;;0.90;;
78686;SDS011;68002;52.310;6.990;2023-05-20T12:09:10;2.90;;;1.20;;
78686;SDS011;68002;52.310;6.990;2023-05-20T12:11:36;2.33;;;0.90;;
78686;SDS011;68002;52.310;6.990;2023-05-20T12:14:02;4.32;;;1.05;;
78686;SDS011;68002;52.310;6.990;2023-05-20T12:16:29;2.10;;;1.08;;
78686;SDS011;68002;52.310;6.990;2023-05-20T12:18:55;4.03;;;1.27;;
78686;SDS011;68002;52.310;6.990;2023-05-20T12:21:20;2.90;;;0.83;;
78686;SDS011;68002;52.310;6.990;2023-05-20T12:23:45;2.13;;;1.00;;
78686;SDS011;68002;52.310;6.990;2023-05-20T12:26:11;5.37;;;1.67;;
78686;SDS011;68002;52.310;6.990;2023-05-20T12:28:36;3.97;;;1.20;;
78686;SDS011;68002;52.310;6.990;2023-05-20T12:31:01;2.87;;;0.93;;
78686;SDS011;68002;52.310;6.990;2023-05-20T12:33:26;2.37;;;0.97;;
78686;SDS011;68002;52.310;6.990;2023-05-20T12:35:51;4.27;;;1.07;;
78686;SDS011;68002;52.310;6.990;2023-05-20T12:38:17;3.65;;;0.85;;
78686;SDS011;68002;52.310;6.990;2023-05-20T12:40:42;5.70;;;1.50;;
78686;SDS011;68002;52.310;6.990;2023-05-20T12:43:07;2.33;;;0.63;;
78686;SDS011;68002;52.310;6.990;2023-05-20T12:45:33;2.07;;;1.07;;
78686;SDS011;68002;52.310;6.990;2023-05-20T12:47:58;2.77;;;1.50;;
78686;SDS011;68002;52.310;6.990;2023-05-20T12:50:23;2.55;;;1.20;;
78686;SDS011;68002;52.310;6.990;2023-05-20T12:52:48;2.90;;;0.90;;
78686;SDS011;68002;52.310;6.990;2023-05-20T12:55:14;1.83;;;0.80;;
78686;SDS011;68002;52.310;6.990;2023-05-20T12:57:39;2.65;;;0.82;;
78686;SDS011;68002;52.310;6.990;2023-05-20T13:00:05;4.53;;;1.13;;
78686;SDS011;68002;52.310;6.990;2023-05-20T13:02:34;5.50;;;1.30;;
78686;SDS011;68002;52.310;6.990;2023-05-20T13:05:00;1.98;;;0.80;;
78686;SDS011;68002;52.310;6.990;2023-05-20T13:07:25;2.37;;;1.27;;
78686;SDS011;68002;52.310;6.990;2023-05-20T13:09:50;3.33;;;0.93;;
78686;SDS011;68002;52.310;6.990;2023-05-20T13:12:16;3.58;;;0.68;;
78686;SDS011;68002;52.310;6.990;2023-05-20T13:14:41;4.00;;;0.70;;
78686;SDS011;68002;52.310;6.990;2023-05-20T13:17:06;3.77;;;0.90;;
78686;SDS011;68002;52.310;6.990;2023-05-20T13:19:31;3.27;;;0.73;;
78686;SDS011;68002;52.310;6.990;2023-05-20T13:21:57;3.57;;;0.90;;
78686;SDS011;68002;52.310;6.990;2023-05-20T13:24:22;1.73;;;0.87;;
78686;SDS011;68002;52.310;6.990;2023-05-20T13:26:47;2.80;;;1.73;;
78686;SDS011;68002;52.310;6.990;2023-05-20T13:29:12;2.97;;;1.13;;
78686;SDS011;68002;52.310;6.990;2023-05-20T13:31:38;2.88;;;0.98;;
78686;SDS011;68002;52.310;6.990;2023-05-20T13:34:03;1.88;;;1.02;;
78686;SDS011;68002;52.310;6.990;2023-05-20T13:36:29;3.03;;;1.00;;
78686;SDS011;68002;52.310;6.990;2023-05-20T13:38:54;2.73;;;1.20;;
78686;SDS011;68002;52.310;6.990;2023-05-20T13:41:19;1.73;;;0.93;;
78686;SDS011;68002;52.310;6.990;2023-05-20T13:43:45;5.67;;;0.93;;
78686;SDS011;68002;52.310;6.990;2023-05-20T13:46:10;2.17;;;1.00;;
78686;SDS011;68002;52.310;6.990;2023-05-20T13:48:35;3.70;;;1.30;;
78686;SDS011;68002;52.310;6.990;2023-05-20T13:51:00;3.13;;;0.93;;
78686;SDS011;68002;52.310;6.990;2023-05-20T13:53:26;1.87;;;0.90;;
78686;SDS011;68002;52.310;6.990;2023-05-20T13:55:52;3.50;;;1.10;;
78686;SDS011;68002;52.310;6.990;2023-05-20T13:58:17;2.45;;;0.70;;
78686;SDS011;68002;52.310;6.990;2023-05-20T14:00:42;3.20;;;1.57;;
78686;SDS011;68002;52.310;6.990;2023-05-20T14:03:08;1.47;;;0.50;;
78686;SDS011;68002;52.310;6.990;2023-05-20T14:05:33;2.07;;;0.80;;
78686;SDS011;68002;52.310;6.990;2023-05-20T14:07:59;3.35;;;1.05;;
78686;SDS011;68002;52.310;6.990;2023-05-20T14:10:24;3.05;;;0.70;;
78686;SDS011;68002;52.310;6.990;2023-05-20T14:12:51;3.28;;;1.10;;
78686;SDS011;68002;52.310;6.990;2023-05-20T14:15:16;2.00;;;0.82;;
78686;SDS011;68002;52.310;6.990;2023-05-20T14:17:41;2.53;;;0.70;;
78686;SDS011;68002;52.310;6.990;2023-05-20T14:20:07;2.97;;;1.37;;
78686;SDS011;68002;52.310;6.990;2023-05-20T14:22:32;1.98;;;0.80;;
78686;SDS011;68002;52.310;6.990;2023-05-20T14:24:58;3.13;;;0.70;;
78686;SDS011;68002;52.310;6.990;2023-05-20T14:27:23;2.30;;;1.10;;
78686;SDS011;68002;52.310;6.990;2023-05-20T14:29:48;2.43;;;1.27;;
78686;SDS011;68002;52.310;6.990;2023-05-20T14:32:13;2.80;;;1.23;;
78686;SDS011;68002;52.310;6.990;2023-05-20T14:34:38;2.63;;;1.30;;
78686;SDS011;68002;52.310;6.990;2023-05-20T14:37:04;2.07;;;0.70;;
78686;SDS011;68002;52.310;6.990;2023-05-20T14:39:29;2.13;;;0.93;;
78686;SDS011;68002;52.310;6.990;2023-05-20T14:41:54;4.13;;;1.47;;
78686;SDS011;68002;52.310;6.990;2023-05-20T14:44:19;5.53;;;1.03;;
78686;SDS011;68002;52.310;6.990;2023-05-20T14:46:44;4.13;;;0.90;;
78686;SDS011;68002;52.310;6.990;2023-05-20T14:49:10;1.77;;;1.03;;
78686;SDS011;68002;52.310;6.990;2023-05-20T14:51:35;2.37;;;1.57;;